sensor_id;sensor_type;location;lat;lon;timestamp;temperature;humidity
2889;DHT22;1453;42.708;23.282;2022-08-01T00:00:31;18.50;99.90
2889;DHT22;1453;42.708;23.282;2022-08-01T00:02:57;18.50;99.90
2889;DHT22;1453;42.708;23.282;2022-08-01T00:05:22;18.60;99.90
2889;DHT22;1453;42.708;23.282;2022-08-01T00:07:48;18.50;99.90
2889;DHT22;1453;42.708;23.282;2022-08-01T00:10:15;18.50;99.90
2889;DHT22;1453;42.708;23.282;2022-08-01T00:12:42;18.70;99.90
2889;DHT22;1453;42.708;23.282;2022-08-01T00:15:12;18.80;99.90
2889;DHT22;1453;42.708;23.282;2022-08-01T00:17:39;19.00;99.90
2889;DHT22;1453;42.708;23.282;2022-08-01T00:20:07;19.00;99.90
2889;DHT22;1453;42.708;23.282;2022-08-01T00:22:35;19.00;99.90
2889;DHT22;1453;42.708;23.282;2022-08-01T00:25:01;18.90;99.90
2889;DHT22;1453;42.708;23.282;2022-08-01T00:27:28;18.90;99.90
2889;DHT22;1453;42.708;23.282;2022-08-01T00:29:54;18.80;99.90
2889;DHT22;1453;42.708;23.282;2022-08-01T00:32:19;18.60;99.90
2889;DHT22;1453;42.708;23.282;2022-08-01T00:34:45;18.50;99.90
2889;DHT22;1453;42.708;23.282;2022-08-01T00:37:11;18.40;99.90
2889;DHT22;1453;42.708;23.282;2022-08-01T00:39:37;18.40;99.90
2889;DHT22;1453;42.708;23.282;2022-08-01T00:42:08;18.10;99.90
2889;DHT22;1453;42.708;23.282;2022-08-01T00:44:35;18.00;99.90
2889;DHT22;1453;42.708;23.282;2022-08-01T00:47:02;17.70;99.90
2889;DHT22;1453;42.708;23.282;2022-08-01T00:49:28;17.60;99.90
2889;DHT22;1453;42.708;23.282;2022-08-01T00:51:55;17.70;99.90
2889;DHT22;1453;42.708;23.282;2022-08-01T00:54:22;17.60;99.90
2889;DHT22;1453;42.708;23.282;2022-08-01T00:56:49;17.40;99.90
2889;DHT22;1453;42.708;23.282;2022-08-01T00:59:17;17.50;99.90
2889;DHT22;1453;42.708;23.282;2022-08-01T01:01:43;17.60;99.90
2889;DHT22;1453;42.708;23.282;2022-08-01T01:04:09;17.60;99.90
2889;DHT22;1453;42.708;23.282;2022-08-01T01:07:00;17.70;99.90
2889;DHT22;1453;42.708;23.282;2022-08-01T01:09:49;17.50;99.90
2889;DHT22;1453;42.708;23.282;2022-08-01T01:15:37;17.40;99.90
2889;DHT22;1453;42.708;23.282;2022-08-01T01:18:09;17.40;99.90
2889;DHT22;1453;42.708;23.282;2022-08-01T01:20:42;17.50;99.90
2889;DHT22;1453;42.708;23.282;2022-08-01T01:29:01;17.10;99.90
2889;DHT22;1453;42.708;23.282;2022-08-01T01:31:46;17.10;99.90
2889;DHT22;1453;42.708;23.282;2022-08-01T01:34:15;17.20;99.90
2889;DHT22;1453;42.708;23.282;2022-08-01T01:36:44;17.30;99.90
2889;DHT22;1453;42.708;23.282;2022-08-01T01:39:12;17.30;99.90
2889;DHT22;1453;42.708;23.282;2022-08-01T01:41:40;17.10;99.90
2889;DHT22;1453;42.708;23.282;2022-08-01T01:44:07;17.30;99.90
2889;DHT22;1453;42.708;23.282;2022-08-01T01:46:36;17.40;99.90
2889;DHT22;1453;42.708;23.282;2022-08-01T01:49:03;17.60;99.90
2889;DHT22;1453;42.708;23.282;2022-08-01T01:51:30;17.70;99.90
2889;DHT22;1453;42.708;23.282;2022-08-01T01:53:57;17.70;99.90
2889;DHT22;1453;42.708;23.282;2022-08-01T01:56:26;17.80;99.90
2889;DHT22;1453;42.708;23.282;2022-08-01T01:58:55;17.90;99.90
2889;DHT22;1453;42.708;23.282;2022-08-01T02:01:27;17.80;99.90
2889;DHT22;1453;42.708;23.282;2022-08-01T02:03:55;17.60;99.90
2889;DHT22;1453;42.708;23.282;2022-08-01T02:06:24;17.70;99.90
2889;DHT22;1453;42.708;23.282;2022-08-01T02:08:53;17.60;99.90
2889;DHT22;1453;42.708;23.282;2022-08-01T02:11:20;17.80;99.90
2889;DHT22;1453;42.708;23.282;2022-08-01T02:13:57;17.80;99.90
2889;DHT22;1453;42.708;23.282;2022-08-01T02:16:27;17.80;99.90
2889;DHT22;1453;42.708;23.282;2022-08-01T02:18:55;17.90;99.90
2889;DHT22;1453;42.708;23.282;2022-08-01T02:24:40;18.10;99.90
2889;DHT22;1453;42.708;23.282;2022-08-01T02:27:22;18.00;99.90
2889;DHT22;1453;42.708;23.282;2022-08-01T02:29:59;17.90;99.90
2889;DHT22;1453;42.708;23.282;2022-08-01T02:32:47;18.10;99.90
2889;DHT22;1453;42.708;23.282;2022-08-01T02:35:26;18.10;99.90
2889;DHT22;1453;42.708;23.282;2022-08-01T02:37:54;18.10;99.90
2889;DHT22;1453;42.708;23.282;2022-08-01T02:40:22;18.00;99.90
2889;DHT22;1453;42.708;23.282;2022-08-01T02:42:51;17.90;99.90
2889;DHT22;1453;42.708;23.282;2022-08-01T02:45:19;17.60;99.90
2889;DHT22;1453;42.708;23.282;2022-08-01T02:47:48;17.30;99.90
2889;DHT22;1453;42.708;23.282;2022-08-01T02:50:16;17.10;99.90
2889;DHT22;1453;42.708;23.282;2022-08-01T02:52:47;17.00;99.90
2889;DHT22;1453;42.708;23.282;2022-08-01T02:55:14;16.50;99.90
2889;DHT22;1453;42.708;23.282;2022-08-01T02:57:44;16.40;99.90
2889;DHT22;1453;42.708;23.282;2022-08-01T03:00:13;16.50;99.90
2889;DHT22;1453;42.708;23.282;2022-08-01T03:02:42;16.30;99.90
2889;DHT22;1453;42.708;23.282;2022-08-01T03:05:13;16.40;99.90
2889;DHT22;1453;42.708;23.282;2022-08-01T03:07:39;16.40;99.90
2889;DHT22;1453;42.708;23.282;2022-08-01T03:10:08;16.50;99.90
2889;DHT22;1453;42.708;23.282;2022-08-01T03:12:34;16.40;99.90
2889;DHT22;1453;42.708;23.282;2022-08-01T03:15:03;16.40;99.90
2889;DHT22;1453;42.708;23.282;2022-08-01T03:17:30;16.20;99.90
2889;DHT22;1453;42.708;23.282;2022-08-01T03:19:58;16.10;99.90
2889;DHT22;1453;42.708;23.282;2022-08-01T03:22:29;16.10;99.90
2889;DHT22;1453;42.708;23.282;2022-08-01T03:24:56;16.10;99.90
2889;DHT22;1453;42.708;23.282;2022-08-01T03:27:23;15.90;99.90
2889;DHT22;1453;42.708;23.282;2022-08-01T03:29:51;15.70;99.90
2889;DHT22;1453;42.708;23.282;2022-08-01T03:32:19;15.70;99.90
2889;DHT22;1453;42.708;23.282;2022-08-01T03:34:45;15.90;99.90
2889;DHT22;1453;42.708;23.282;2022-08-01T03:37:29;16.00;99.90
2889;DHT22;1453;42.708;23.282;2022-08-01T03:40:04;16.20;99.90
2889;DHT22;1453;42.708;23.282;2022-08-01T03:42:41;16.10;99.90
2889;DHT22;1453;42.708;23.282;2022-08-01T03:45:19;16.30;99.90
2889;DHT22;1453;42.708;23.282;2022-08-01T03:47:55;16.60;99.90
2889;DHT22;1453;42.708;23.282;2022-08-01T03:50:25;16.70;99.90
2889;DHT22;1453;42.708;23.282;2022-08-01T03:52:54;16.60;99.90
2889;DHT22;1453;42.708;23.282;2022-08-01T03:55:23;16.60;99.90
2889;DHT22;1453;42.708;23.282;2022-08-01T03:57:50;16.80;99.90
2889;DHT22;1453;42.708;23.282;2022-08-01T04:00:17;16.90;99.90
2889;DHT22;1453;42.708;23.282;2022-08-01T04:02:49;16.90;99.90
2889;DHT22;1453;42.708;23.282;2022-08-01T04:05:17;17.00;99.90
2889;DHT22;1453;42.708;23.282;2022-08-01T04:07:49;17.20;99.90
2889;DHT22;1453;42.708;23.282;2022-08-01T04:10:22;17.20;99.90
2889;DHT22;1453;42.708;23.282;2022-08-01T04:12:49;17.10;99.90
2889;DHT22;1453;42.708;23.282;2022-08-01T04:15:15;17.00;99.90
2889;DHT22;1453;42.708;23.282;2022-08-01T04:17:41;16.90;99.90
2889;DHT22;1453;42.708;23.282;2022-08-01T04:20:07;17.00;99.90
2889;DHT22;1453;42.708;23.282;2022-08-01T04:22:33;16.70;99.90
2889;DHT22;1453;42.708;23.282;2022-08-01T04:25:00;16.90;99.90
2889;DHT22;1453;42.708;23.282;2022-08-01T04:27:36;17.20;99.90
2889;DHT22;1453;42.708;23.282;2022-08-01T04:30:04;17.10;99.90
2889;DHT22;1453;42.708;23.282;2022-08-01T04:32:35;17.10;99.90
2889;DHT22;1453;42.708;23.282;2022-08-01T04:35:07;17.00;99.90
2889;DHT22;1453;42.708;23.282;2022-08-01T04:37:36;17.20;99.90
2889;DHT22;1453;42.708;23.282;2022-08-01T04:40:07;17.30;99.90
2889;DHT22;1453;42.708;23.282;2022-08-01T04:42:34;17.40;99.90
2889;DHT22;1453;42.708;23.282;2022-08-01T04:45:01;17.50;99.90
2889;DHT22;1453;42.708;23.282;2022-08-01T04:47:27;17.50;99.90
2889;DHT22;1453;42.708;23.282;2022-08-01T04:49:54;17.40;99.90
2889;DHT22;1453;42.708;23.282;2022-08-01T04:52:22;17.30;99.90
2889;DHT22;1453;42.708;23.282;2022-08-01T04:54:48;17.30;99.90
2889;DHT22;1453;42.708;23.282;2022-08-01T04:57:13;17.50;99.90
2889;DHT22;1453;42.708;23.282;2022-08-01T04:59:43;17.70;99.90
2889;DHT22;1453;42.708;23.282;2022-08-01T05:02:15;18.00;99.90
2889;DHT22;1453;42.708;23.282;2022-08-01T05:04:43;18.20;99.90
2889;DHT22;1453;42.708;23.282;2022-08-01T05:07:11;18.30;99.90
2889;DHT22;1453;42.708;23.282;2022-08-01T05:09:39;18.30;99.90
2889;DHT22;1453;42.708;23.282;2022-08-01T05:12:09;18.50;99.90
2889;DHT22;1453;42.708;23.282;2022-08-01T05:14:36;18.50;99.90
2889;DHT22;1453;42.708;23.282;2022-08-01T05:17:05;18.80;99.90
2889;DHT22;1453;42.708;23.282;2022-08-01T05:19:33;19.10;99.90
2889;DHT22;1453;42.708;23.282;2022-08-01T05:22:00;19.50;99.90
2889;DHT22;1453;42.708;23.282;2022-08-01T05:24:31;20.00;99.90
2889;DHT22;1453;42.708;23.282;2022-08-01T05:26:58;20.00;99.90
2889;DHT22;1453;42.708;23.282;2022-08-01T05:29:24;20.00;99.90
2889;DHT22;1453;42.708;23.282;2022-08-01T05:31:51;20.80;99.90
2889;DHT22;1453;42.708;23.282;2022-08-01T05:34:18;21.00;99.90
2889;DHT22;1453;42.708;23.282;2022-08-01T05:36:44;21.50;99.90
2889;DHT22;1453;42.708;23.282;2022-08-01T05:39:10;21.60;99.90
2889;DHT22;1453;42.708;23.282;2022-08-01T05:41:36;21.20;99.90
2889;DHT22;1453;42.708;23.282;2022-08-01T05:44:05;21.00;99.90
2889;DHT22;1453;42.708;23.282;2022-08-01T05:46:32;21.80;99.90
2889;DHT22;1453;42.708;23.282;2022-08-01T05:49:02;22.30;99.90
2889;DHT22;1453;42.708;23.282;2022-08-01T05:51:29;22.40;99.90
2889;DHT22;1453;42.708;23.282;2022-08-01T05:53:56;22.40;99.90
2889;DHT22;1453;42.708;23.282;2022-08-01T05:56:22;22.10;99.90
2889;DHT22;1453;42.708;23.282;2022-08-01T05:58:49;22.80;99.90
2889;DHT22;1453;42.708;23.282;2022-08-01T06:01:16;22.40;99.90
2889;DHT22;1453;42.708;23.282;2022-08-01T06:03:42;22.80;99.90
2889;DHT22;1453;42.708;23.282;2022-08-01T06:06:08;23.00;99.90
2889;DHT22;1453;42.708;23.282;2022-08-01T06:08:34;23.00;99.90
2889;DHT22;1453;42.708;23.282;2022-08-01T06:10:59;22.90;99.90
2889;DHT22;1453;42.708;23.282;2022-08-01T06:13:26;23.10;99.90
2889;DHT22;1453;42.708;23.282;2022-08-01T06:15:51;23.20;99.00
2889;DHT22;1453;42.708;23.282;2022-08-01T06:18:17;23.70;96.30
2889;DHT22;1453;42.708;23.282;2022-08-01T06:20:43;23.80;95.30
2889;DHT22;1453;42.708;23.282;2022-08-01T06:23:09;23.50;92.20
2889;DHT22;1453;42.708;23.282;2022-08-01T06:25:36;23.50;91.50
2889;DHT22;1453;42.708;23.282;2022-08-01T06:28:02;23.50;90.10
2889;DHT22;1453;42.708;23.282;2022-08-01T06:30:28;23.60;90.90
2889;DHT22;1453;42.708;23.282;2022-08-01T06:32:54;23.40;91.40
2889;DHT22;1453;42.708;23.282;2022-08-01T06:35:21;23.70;90.10
2889;DHT22;1453;42.708;23.282;2022-08-01T06:37:47;23.50;87.40
2889;DHT22;1453;42.708;23.282;2022-08-01T06:40:14;23.80;88.50
2889;DHT22;1453;42.708;23.282;2022-08-01T06:42:40;24.00;85.80
2889;DHT22;1453;42.708;23.282;2022-08-01T06:45:08;24.00;84.80
2889;DHT22;1453;42.708;23.282;2022-08-01T06:47:35;24.50;83.80
2889;DHT22;1453;42.708;23.282;2022-08-01T06:50:02;24.10;83.10
2889;DHT22;1453;42.708;23.282;2022-08-01T06:52:28;24.30;83.30
2889;DHT22;1453;42.708;23.282;2022-08-01T06:54:54;24.10;82.80
2889;DHT22;1453;42.708;23.282;2022-08-01T06:57:20;23.50;83.50
2889;DHT22;1453;42.708;23.282;2022-08-01T06:59:46;23.20;84.60
2889;DHT22;1453;42.708;23.282;2022-08-01T07:02:11;22.90;86.90
2889;DHT22;1453;42.708;23.282;2022-08-01T07:04:37;22.60;88.10
2889;DHT22;1453;42.708;23.282;2022-08-01T07:07:03;23.30;87.20
2889;DHT22;1453;42.708;23.282;2022-08-01T07:09:29;23.90;85.20
2889;DHT22;1453;42.708;23.282;2022-08-01T07:11:55;23.90;85.00
2889;DHT22;1453;42.708;23.282;2022-08-01T07:14:22;24.60;84.50
2889;DHT22;1453;42.708;23.282;2022-08-01T07:16:49;24.80;83.90
2889;DHT22;1453;42.708;23.282;2022-08-01T07:19:15;24.70;82.00
2889;DHT22;1453;42.708;23.282;2022-08-01T07:21:42;24.60;82.50
2889;DHT22;1453;42.708;23.282;2022-08-01T07:24:10;24.70;81.10
2889;DHT22;1453;42.708;23.282;2022-08-01T07:26:39;24.30;81.20
2889;DHT22;1453;42.708;23.282;2022-08-01T07:29:08;24.40;81.40
2889;DHT22;1453;42.708;23.282;2022-08-01T07:31:34;25.20;81.10
2889;DHT22;1453;42.708;23.282;2022-08-01T07:34:00;24.90;80.40
2889;DHT22;1453;42.708;23.282;2022-08-01T07:36:26;25.20;79.70
2889;DHT22;1453;42.708;23.282;2022-08-01T07:38:51;25.00;79.10
2889;DHT22;1453;42.708;23.282;2022-08-01T07:41:17;24.90;78.50
2889;DHT22;1453;42.708;23.282;2022-08-01T07:43:43;25.20;79.40
2889;DHT22;1453;42.708;23.282;2022-08-01T07:46:09;25.50;78.60
2889;DHT22;1453;42.708;23.282;2022-08-01T07:48:35;25.00;78.00
2889;DHT22;1453;42.708;23.282;2022-08-01T07:51:00;24.30;79.30
2889;DHT22;1453;42.708;23.282;2022-08-01T07:53:26;24.70;81.80
2889;DHT22;1453;42.708;23.282;2022-08-01T07:55:52;24.70;80.00
2889;DHT22;1453;42.708;23.282;2022-08-01T07:58:18;24.30;82.40
2889;DHT22;1453;42.708;23.282;2022-08-01T08:00:44;24.70;81.90
2889;DHT22;1453;42.708;23.282;2022-08-01T08:03:09;24.90;80.10
2889;DHT22;1453;42.708;23.282;2022-08-01T08:05:36;25.90;78.10
2889;DHT22;1453;42.708;23.282;2022-08-01T08:08:06;25.90;76.70
2889;DHT22;1453;42.708;23.282;2022-08-01T08:10:32;25.80;77.70
2889;DHT22;1453;42.708;23.282;2022-08-01T08:12:58;26.10;77.50
2889;DHT22;1453;42.708;23.282;2022-08-01T08:15:24;26.30;76.30
2889;DHT22;1453;42.708;23.282;2022-08-01T08:17:50;26.20;75.70
2889;DHT22;1453;42.708;23.282;2022-08-01T08:20:16;25.80;77.10
2889;DHT22;1453;42.708;23.282;2022-08-01T08:22:41;26.00;75.80
2889;DHT22;1453;42.708;23.282;2022-08-01T08:25:08;25.80;75.00
2889;DHT22;1453;42.708;23.282;2022-08-01T08:27:35;26.00;75.20
2889;DHT22;1453;42.708;23.282;2022-08-01T08:30:03;26.30;73.40
2889;DHT22;1453;42.708;23.282;2022-08-01T08:32:32;26.00;74.10
2889;DHT22;1453;42.708;23.282;2022-08-01T08:34:59;26.20;74.20
2889;DHT22;1453;42.708;23.282;2022-08-01T08:37:25;26.30;72.40
2889;DHT22;1453;42.708;23.282;2022-08-01T08:39:51;26.30;71.80
2889;DHT22;1453;42.708;23.282;2022-08-01T08:42:18;26.00;72.20
2889;DHT22;1453;42.708;23.282;2022-08-01T08:44:44;26.10;72.40
2889;DHT22;1453;42.708;23.282;2022-08-01T08:47:12;26.00;70.50
2889;DHT22;1453;42.708;23.282;2022-08-01T08:49:38;26.00;70.80
2889;DHT22;1453;42.708;23.282;2022-08-01T08:52:05;25.70;70.20
2889;DHT22;1453;42.708;23.282;2022-08-01T08:54:32;25.40;70.30
2889;DHT22;1453;42.708;23.282;2022-08-01T08:57:00;25.40;71.40
2889;DHT22;1453;42.708;23.282;2022-08-01T08:59:26;25.50;70.80
2889;DHT22;1453;42.708;23.282;2022-08-01T09:01:54;25.50;69.90
2889;DHT22;1453;42.708;23.282;2022-08-01T09:04:21;25.70;71.30
2889;DHT22;1453;42.708;23.282;2022-08-01T09:06:50;26.00;69.40
2889;DHT22;1453;42.708;23.282;2022-08-01T09:09:16;26.00;69.10
2889;DHT22;1453;42.708;23.282;2022-08-01T09:11:42;26.20;67.70
2889;DHT22;1453;42.708;23.282;2022-08-01T09:14:12;26.40;67.80
2889;DHT22;1453;42.708;23.282;2022-08-01T09:16:41;26.30;68.00
2889;DHT22;1453;42.708;23.282;2022-08-01T09:21:59;26.70;65.40
2889;DHT22;1453;42.708;23.282;2022-08-01T09:24:30;26.30;65.50
2889;DHT22;1453;42.708;23.282;2022-08-01T09:26:58;26.30;64.80
2889;DHT22;1453;42.708;23.282;2022-08-01T09:29:29;26.20;65.70
2889;DHT22;1453;42.708;23.282;2022-08-01T09:31:56;26.40;65.50
2889;DHT22;1453;42.708;23.282;2022-08-01T09:34:27;26.40;64.90
2889;DHT22;1453;42.708;23.282;2022-08-01T09:37:01;26.30;65.80
2889;DHT22;1453;42.708;23.282;2022-08-01T09:39:32;26.60;66.20
2889;DHT22;1453;42.708;23.282;2022-08-01T09:42:26;26.10;66.40
2889;DHT22;1453;42.708;23.282;2022-08-01T09:44:52;26.80;67.00
2889;DHT22;1453;42.708;23.282;2022-08-01T09:47:20;27.30;64.90
2889;DHT22;1453;42.708;23.282;2022-08-01T09:49:56;27.70;65.70
2889;DHT22;1453;42.708;23.282;2022-08-01T09:52:24;27.50;67.70
2889;DHT22;1453;42.708;23.282;2022-08-01T09:54:56;27.90;65.90
2889;DHT22;1453;42.708;23.282;2022-08-01T09:57:25;27.50;64.80
2889;DHT22;1453;42.708;23.282;2022-08-01T09:59:54;27.10;64.30
2889;DHT22;1453;42.708;23.282;2022-08-01T10:02:34;27.30;64.80
2889;DHT22;1453;42.708;23.282;2022-08-01T10:05:03;27.00;65.40
2889;DHT22;1453;42.708;23.282;2022-08-01T10:07:30;26.30;66.50
2889;DHT22;1453;42.708;23.282;2022-08-01T10:10:10;26.30;66.40
2889;DHT22;1453;42.708;23.282;2022-08-01T10:12:37;26.80;65.00
2889;DHT22;1453;42.708;23.282;2022-08-01T10:15:05;27.10;65.30
2889;DHT22;1453;42.708;23.282;2022-08-01T10:17:32;27.60;65.00
2889;DHT22;1453;42.708;23.282;2022-08-01T10:20:00;26.90;66.00
2889;DHT22;1453;42.708;23.282;2022-08-01T10:22:30;27.00;66.60
2889;DHT22;1453;42.708;23.282;2022-08-01T10:24:57;27.40;65.10
2889;DHT22;1453;42.708;23.282;2022-08-01T10:27:29;27.00;64.20
2889;DHT22;1453;42.708;23.282;2022-08-01T10:30:01;27.00;65.20
2889;DHT22;1453;42.708;23.282;2022-08-01T10:32:30;26.90;66.10
2889;DHT22;1453;42.708;23.282;2022-08-01T10:34:58;27.10;65.40
2889;DHT22;1453;42.708;23.282;2022-08-01T10:37:24;27.10;66.30
2889;DHT22;1453;42.708;23.282;2022-08-01T10:39:54;26.50;65.80
2889;DHT22;1453;42.708;23.282;2022-08-01T10:42:23;25.80;66.70
2889;DHT22;1453;42.708;23.282;2022-08-01T10:44:49;26.30;66.40
2889;DHT22;1453;42.708;23.282;2022-08-01T10:47:38;27.00;66.00
2889;DHT22;1453;42.708;23.282;2022-08-01T10:50:35;27.50;65.10
2889;DHT22;1453;42.708;23.282;2022-08-01T10:53:24;28.10;64.30
2889;DHT22;1453;42.708;23.282;2022-08-01T10:58:28;28.20;62.90
2889;DHT22;1453;42.708;23.282;2022-08-01T11:01:24;27.70;63.50
2889;DHT22;1453;42.708;23.282;2022-08-01T11:04:11;27.60;64.40
2889;DHT22;1453;42.708;23.282;2022-08-01T11:06:53;27.50;64.90
2889;DHT22;1453;42.708;23.282;2022-08-01T11:09:39;27.10;63.80
2889;DHT22;1453;42.708;23.282;2022-08-01T11:12:12;27.40;64.20
2889;DHT22;1453;42.708;23.282;2022-08-01T11:20:19;28.00;63.20
2889;DHT22;1453;42.708;23.282;2022-08-01T11:30:53;27.90;63.80
2889;DHT22;1453;42.708;23.282;2022-08-01T11:38:38;27.80;63.80
2889;DHT22;1453;42.708;23.282;2022-08-01T11:41:30;27.80;63.80
2889;DHT22;1453;42.708;23.282;2022-08-01T11:44:07;28.40;62.90
2889;DHT22;1453;42.708;23.282;2022-08-01T11:46:50;28.50;63.40
2889;DHT22;1453;42.708;23.282;2022-08-01T11:52:26;29.10;62.90
2889;DHT22;1453;42.708;23.282;2022-08-01T11:55:08;29.20;61.00
2889;DHT22;1453;42.708;23.282;2022-08-01T11:57:35;28.40;61.50
2889;DHT22;1453;42.708;23.282;2022-08-01T12:00:13;28.10;62.30
2889;DHT22;1453;42.708;23.282;2022-08-01T12:02:40;27.50;63.10
2889;DHT22;1453;42.708;23.282;2022-08-01T12:05:11;27.60;64.80
2889;DHT22;1453;42.708;23.282;2022-08-01T12:07:40;27.80;64.10
2889;DHT22;1453;42.708;23.282;2022-08-01T12:10:09;27.70;64.40
2889;DHT22;1453;42.708;23.282;2022-08-01T12:12:45;27.20;64.10
2889;DHT22;1453;42.708;23.282;2022-08-01T12:15:14;27.40;64.50
2889;DHT22;1453;42.708;23.282;2022-08-01T12:17:49;27.70;63.20
2889;DHT22;1453;42.708;23.282;2022-08-01T12:20:20;27.90;64.50
2889;DHT22;1453;42.708;23.282;2022-08-01T12:22:47;28.40;63.30
2889;DHT22;1453;42.708;23.282;2022-08-01T12:25:17;28.40;63.00
2889;DHT22;1453;42.708;23.282;2022-08-01T12:27:47;28.30;62.70
2889;DHT22;1453;42.708;23.282;2022-08-01T12:30:20;28.50;61.90
2889;DHT22;1453;42.708;23.282;2022-08-01T12:32:51;28.10;62.30
2889;DHT22;1453;42.708;23.282;2022-08-01T12:35:23;28.10;62.80
2889;DHT22;1453;42.708;23.282;2022-08-01T12:37:55;28.30;62.80
2889;DHT22;1453;42.708;23.282;2022-08-01T12:40:28;28.70;62.20
2889;DHT22;1453;42.708;23.282;2022-08-01T12:43:06;28.60;61.30
2889;DHT22;1453;42.708;23.282;2022-08-01T12:45:34;28.80;61.60
2889;DHT22;1453;42.708;23.282;2022-08-01T12:48:14;28.90;62.00
2889;DHT22;1453;42.708;23.282;2022-08-01T12:50:46;29.20;62.10
2889;DHT22;1453;42.708;23.282;2022-08-01T12:53:14;29.20;62.20
2889;DHT22;1453;42.708;23.282;2022-08-01T12:55:54;29.10;61.50
2889;DHT22;1453;42.708;23.282;2022-08-01T12:58:21;29.70;62.70
2889;DHT22;1453;42.708;23.282;2022-08-01T13:00:49;28.90;61.70
2889;DHT22;1453;42.708;23.282;2022-08-01T13:03:18;28.60;62.60
2889;DHT22;1453;42.708;23.282;2022-08-01T13:05:48;28.70;62.00
2889;DHT22;1453;42.708;23.282;2022-08-01T13:08:23;28.80;62.20
2889;DHT22;1453;42.708;23.282;2022-08-01T13:11:03;28.80;63.20
2889;DHT22;1453;42.708;23.282;2022-08-01T13:13:42;29.30;61.80
2889;DHT22;1453;42.708;23.282;2022-08-01T13:16:10;28.90;60.70
2889;DHT22;1453;42.708;23.282;2022-08-01T13:18:37;28.80;62.50
2889;DHT22;1453;42.708;23.282;2022-08-01T13:21:17;29.20;61.70
2889;DHT22;1453;42.708;23.282;2022-08-01T13:29:09;28.90;61.80
2889;DHT22;1453;42.708;23.282;2022-08-01T13:31:37;28.00;62.40
2889;DHT22;1453;42.708;23.282;2022-08-01T13:34:04;28.20;63.50
2889;DHT22;1453;42.708;23.282;2022-08-01T13:36:30;28.50;63.10
2889;DHT22;1453;42.708;23.282;2022-08-01T13:39:00;28.50;62.80
2889;DHT22;1453;42.708;23.282;2022-08-01T13:41:44;28.30;63.00
2889;DHT22;1453;42.708;23.282;2022-08-01T13:44:11;28.60;63.40
2889;DHT22;1453;42.708;23.282;2022-08-01T13:46:38;28.30;63.20
2889;DHT22;1453;42.708;23.282;2022-08-01T13:49:05;28.80;63.10
2889;DHT22;1453;42.708;23.282;2022-08-01T13:51:32;28.90;62.20
2889;DHT22;1453;42.708;23.282;2022-08-01T13:53:58;28.50;62.10
2889;DHT22;1453;42.708;23.282;2022-08-01T13:56:25;28.30;62.80
2889;DHT22;1453;42.708;23.282;2022-08-01T13:58:53;28.10;63.10
2889;DHT22;1453;42.708;23.282;2022-08-01T14:01:19;28.00;63.10
2889;DHT22;1453;42.708;23.282;2022-08-01T14:03:46;27.90;63.20
2889;DHT22;1453;42.708;23.282;2022-08-01T14:06:12;27.10;66.10
2889;DHT22;1453;42.708;23.282;2022-08-01T14:08:41;27.30;65.60
2889;DHT22;1453;42.708;23.282;2022-08-01T14:11:07;27.60;65.60
2889;DHT22;1453;42.708;23.282;2022-08-01T14:13:33;28.10;66.00
2889;DHT22;1453;42.708;23.282;2022-08-01T14:15:59;28.30;64.80
2889;DHT22;1453;42.708;23.282;2022-08-01T14:18:25;28.00;65.40
2889;DHT22;1453;42.708;23.282;2022-08-01T14:20:51;28.00;65.70
2889;DHT22;1453;42.708;23.282;2022-08-01T14:23:17;28.00;66.00
2889;DHT22;1453;42.708;23.282;2022-08-01T14:25:43;27.50;68.40
2889;DHT22;1453;42.708;23.282;2022-08-01T14:28:09;27.20;64.50
2889;DHT22;1453;42.708;23.282;2022-08-01T14:30:36;27.10;65.30
2889;DHT22;1453;42.708;23.282;2022-08-01T14:33:02;27.30;65.40
2889;DHT22;1453;42.708;23.282;2022-08-01T14:35:28;27.30;65.20
2889;DHT22;1453;42.708;23.282;2022-08-01T14:37:54;27.10;66.20
2889;DHT22;1453;42.708;23.282;2022-08-01T14:40:20;26.80;66.00
2889;DHT22;1453;42.708;23.282;2022-08-01T14:42:46;26.60;66.50
2889;DHT22;1453;42.708;23.282;2022-08-01T14:45:12;26.80;66.40
2889;DHT22;1453;42.708;23.282;2022-08-01T14:47:40;26.80;66.20
2889;DHT22;1453;42.708;23.282;2022-08-01T14:50:10;26.70;66.00
2889;DHT22;1453;42.708;23.282;2022-08-01T14:52:38;26.60;65.80
2889;DHT22;1453;42.708;23.282;2022-08-01T14:55:06;26.90;66.20
2889;DHT22;1453;42.708;23.282;2022-08-01T14:57:33;26.70;66.40
2889;DHT22;1453;42.708;23.282;2022-08-01T14:59:59;26.80;66.60
2889;DHT22;1453;42.708;23.282;2022-08-01T15:02:25;27.10;66.40
2889;DHT22;1453;42.708;23.282;2022-08-01T15:04:51;27.00;65.60
2889;DHT22;1453;42.708;23.282;2022-08-01T15:07:18;26.50;67.20
2889;DHT22;1453;42.708;23.282;2022-08-01T15:09:44;26.80;67.10
2889;DHT22;1453;42.708;23.282;2022-08-01T15:12:11;27.00;66.60
2889;DHT22;1453;42.708;23.282;2022-08-01T15:14:37;26.90;66.70
2889;DHT22;1453;42.708;23.282;2022-08-01T15:17:25;26.80;66.00
2889;DHT22;1453;42.708;23.282;2022-08-01T15:19:58;26.60;66.90
2889;DHT22;1453;42.708;23.282;2022-08-01T15:22:25;26.70;67.10
2889;DHT22;1453;42.708;23.282;2022-08-01T15:24:59;26.80;66.80
2889;DHT22;1453;42.708;23.282;2022-08-01T15:27:26;26.90;66.70
2889;DHT22;1453;42.708;23.282;2022-08-01T15:29:53;26.60;67.30
2889;DHT22;1453;42.708;23.282;2022-08-01T15:32:19;26.40;67.10
2889;DHT22;1453;42.708;23.282;2022-08-01T15:34:46;26.30;67.20
2889;DHT22;1453;42.708;23.282;2022-08-01T15:37:12;26.30;67.10
2889;DHT22;1453;42.708;23.282;2022-08-01T15:39:38;26.30;66.70
2889;DHT22;1453;42.708;23.282;2022-08-01T15:42:12;26.30;67.20
2889;DHT22;1453;42.708;23.282;2022-08-01T15:44:40;26.40;66.90
2889;DHT22;1453;42.708;23.282;2022-08-01T15:47:07;26.50;66.60
2889;DHT22;1453;42.708;23.282;2022-08-01T15:49:34;26.50;66.40
2889;DHT22;1453;42.708;23.282;2022-08-01T15:52:06;26.60;66.40
2889;DHT22;1453;42.708;23.282;2022-08-01T15:54:32;26.70;65.30
2889;DHT22;1453;42.708;23.282;2022-08-01T15:56:58;26.70;65.10
2889;DHT22;1453;42.708;23.282;2022-08-01T15:59:24;26.60;65.90
2889;DHT22;1453;42.708;23.282;2022-08-01T16:01:50;26.70;65.20
2889;DHT22;1453;42.708;23.282;2022-08-01T16:04:17;26.60;64.90
2889;DHT22;1453;42.708;23.282;2022-08-01T16:06:44;26.40;65.40
2889;DHT22;1453;42.708;23.282;2022-08-01T16:09:10;26.30;65.90
2889;DHT22;1453;42.708;23.282;2022-08-01T16:11:36;26.20;65.60
2889;DHT22;1453;42.708;23.282;2022-08-01T16:14:02;26.20;66.10
2889;DHT22;1453;42.708;23.282;2022-08-01T16:16:29;26.30;65.50
2889;DHT22;1453;42.708;23.282;2022-08-01T16:18:54;26.10;65.70
2889;DHT22;1453;42.708;23.282;2022-08-01T16:21:20;26.00;65.80
2889;DHT22;1453;42.708;23.282;2022-08-01T16:23:48;26.00;65.20
2889;DHT22;1453;42.708;23.282;2022-08-01T16:26:14;26.00;65.00
2889;DHT22;1453;42.708;23.282;2022-08-01T16:28:40;26.00;65.10
2889;DHT22;1453;42.708;23.282;2022-08-01T16:31:06;26.00;65.20
2889;DHT22;1453;42.708;23.282;2022-08-01T16:33:32;25.90;64.90
2889;DHT22;1453;42.708;23.282;2022-08-01T16:35:59;25.70;64.70
2889;DHT22;1453;42.708;23.282;2022-08-01T16:38:25;25.70;64.10
2889;DHT22;1453;42.708;23.282;2022-08-01T16:40:51;25.80;64.20